sensor_id;sensor_type;location;lat;lon;timestamp;P1;durP1;ratioP1;P2;durP2;ratioP2
62056;SDS011;48016;50.284;18.860;2022-07-09T00:01:23;6.67;;;4.43;;
62056;SDS011;48016;50.284;18.860;2022-07-09T00:03:51;8.25;;;5.13;;
62056;SDS011;48016;50.284;18.860;2022-07-09T00:06:19;7.00;;;4.40;;
62056;SDS011;48016;50.284;18.860;2022-07-09T00:08:46;8.40;;;4.48;;
62056;SDS011;48016;50.284;18.860;2022-07-09T00:13:40;6.78;;;4.50;;
62056;SDS011;48016;50.284;18.860;2022-07-09T00:16:07;7.35;;;4.20;;
62056;SDS011;48016;50.284;18.860;2022-07-09T00:18:34;8.20;;;4.45;;
62056;SDS011;48016;50.284;18.860;2022-07-09T00:21:01;6.90;;;4.88;;
62056;SDS011;48016;50.284;18.860;2022-07-09T00:23:29;8.90;;;4.90;;
62056;SDS011;48016;50.284;18.860;2022-07-09T00:25:56;6.93;;;4.95;;
62056;SDS011;48016;50.284;18.860;2022-07-09T00:28:23;8.15;;;4.88;;
62056;SDS011;48016;50.284;18.860;2022-07-09T00:30:50;9.23;;;4.30;;
62056;SDS011;48016;50.284;18.860;2022-07-09T00:33:17;8.73;;;4.33;;
62056;SDS011;48016;50.284;18.860;2022-07-09T00:35:45;6.93;;;4.20;;
62056;SDS011;48016;50.284;18.860;2022-07-09T00:38:12;6.45;;;4.28;;
62056;SDS011;48016;50.284;18.860;2022-07-09T00:40:39;10.60;;;4.85;;
62056;SDS011;48016;50.284;18.860;2022-07-09T00:43:16;8.33;;;4.08;;
62056;SDS011;48016;50.284;18.860;2022-07-09T00:45:45;7.98;;;4.73;;
62056;SDS011;48016;50.284;18.860;2022-07-09T00:48:13;7.63;;;4.30;;
62056;SDS011;48016;50.284;18.860;2022-07-09T00:50:41;7.78;;;4.35;;
62056;SDS011;48016;50.284;18.860;2022-07-09T00:53:10;7.10;;;4.60;;
62056;SDS011;48016;50.284;18.860;2022-07-09T00:55:40;5.80;;;4.25;;
62056;SDS011;48016;50.284;18.860;2022-07-09T00:58:07;9.08;;;4.70;;
62056;SDS011;48016;50.284;18.860;2022-07-09T01:00:36;6.35;;;4.43;;
62056;SDS011;48016;50.284;18.860;2022-07-09T01:03:04;10.43;;;4.57;;
62056;SDS011;48016;50.284;18.860;2022-07-09T01:05:31;10.20;;;4.47;;
62056;SDS011;48016;50.284;18.860;2022-07-09T01:08:05;8.20;;;4.13;;
62056;SDS011;48016;50.284;18.860;2022-07-09T01:10:34;7.43;;;3.98;;
62056;SDS011;48016;50.284;18.860;2022-07-09T01:13:02;7.63;;;4.65;;
62056;SDS011;48016;50.284;18.860;2022-07-09T01:15:30;8.05;;;4.30;;
62056;SDS011;48016;50.284;18.860;2022-07-09T01:17:58;7.35;;;4.50;;
62056;SDS011;48016;50.284;18.860;2022-07-09T01:20:29;8.45;;;4.58;;
62056;SDS011;48016;50.284;18.860;2022-07-09T01:22:57;7.48;;;4.58;;
62056;SDS011;48016;50.284;18.860;2022-07-09T01:25:35;7.63;;;4.55;;
62056;SDS011;48016;50.284;18.860;2022-07-09T01:28:07;7.68;;;4.08;;
62056;SDS011;48016;50.284;18.860;2022-07-09T01:30:37;7.78;;;4.63;;
62056;SDS011;48016;50.284;18.860;2022-07-09T01:33:06;8.85;;;4.08;;
62056;SDS011;48016;50.284;18.860;2022-07-09T01:35:34;7.95;;;4.23;;
62056;SDS011;48016;50.284;18.860;2022-07-09T01:38:01;10.30;;;4.30;;
62056;SDS011;48016;50.284;18.860;2022-07-09T01:40:28;8.05;;;4.73;;
62056;SDS011;48016;50.284;18.860;2022-07-09T01:42:55;10.40;;;4.60;;
62056;SDS011;48016;50.284;18.860;2022-07-09T01:45:22;10.18;;;4.53;;
62056;SDS011;48016;50.284;18.860;2022-07-09T01:47:49;7.15;;;4.00;;
62056;SDS011;48016;50.284;18.860;2022-07-09T01:50:16;7.98;;;4.58;;
62056;SDS011;48016;50.284;18.860;2022-07-09T01:52:44;8.83;;;4.60;;
62056;SDS011;48016;50.284;18.860;2022-07-09T01:55:11;7.95;;;5.40;;
62056;SDS011;48016;50.284;18.860;2022-07-09T01:57:38;7.58;;;4.43;;
62056;SDS011;48016;50.284;18.860;2022-07-09T02:00:05;10.78;;;4.98;;
62056;SDS011;48016;50.284;18.860;2022-07-09T02:02:34;10.03;;;4.83;;
62056;SDS011;48016;50.284;18.860;2022-07-09T02:05:01;9.03;;;4.88;;
62056;SDS011;48016;50.284;18.860;2022-07-09T02:07:28;6.95;;;4.63;;
62056;SDS011;48016;50.284;18.860;2022-07-09T02:12:23;7.48;;;4.65;;
62056;SDS011;48016;50.284;18.860;2022-07-09T02:14:50;8.20;;;4.80;;
62056;SDS011;48016;50.284;18.860;2022-07-09T02:17:17;8.48;;;5.05;;
62056;SDS011;48016;50.284;18.860;2022-07-09T02:19:44;6.90;;;4.73;;
62056;SDS011;48016;50.284;18.860;2022-07-09T02:22:11;10.15;;;4.80;;
62056;SDS011;48016;50.284;18.860;2022-07-09T02:24:38;6.65;;;4.30;;
62056;SDS011;48016;50.284;18.860;2022-07-09T02:27:05;6.50;;;4.70;;
62056;SDS011;48016;50.284;18.860;2022-07-09T02:29:33;8.18;;;4.53;;
62056;SDS011;48016;50.284;18.860;2022-07-09T02:32:00;11.08;;;4.65;;
62056;SDS011;48016;50.284;18.860;2022-07-09T02:34:27;11.10;;;5.08;;
62056;SDS011;48016;50.284;18.860;2022-07-09T02:36:54;9.48;;;5.18;;
62056;SDS011;48016;50.284;18.860;2022-07-09T02:39:21;10.60;;;5.10;;
62056;SDS011;48016;50.284;18.860;2022-07-09T02:41:49;7.10;;;4.88;;
62056;SDS011;48016;50.284;18.860;2022-07-09T02:44:17;7.13;;;5.10;;
62056;SDS011;48016;50.284;18.860;2022-07-09T02:46:44;8.18;;;5.45;;
62056;SDS011;48016;50.284;18.860;2022-07-09T02:49:11;7.33;;;4.57;;
62056;SDS011;48016;50.284;18.860;2022-07-09T02:51:38;9.55;;;4.80;;
62056;SDS011;48016;50.284;18.860;2022-07-09T02:54:05;9.07;;;4.50;;
62056;SDS011;48016;50.284;18.860;2022-07-09T02:56:33;9.63;;;5.45;;
62056;SDS011;48016;50.284;18.860;2022-07-09T02:59:00;8.40;;;5.10;;
62056;SDS011;48016;50.284;18.860;2022-07-09T03:01:29;11.00;;;5.18;;
62056;SDS011;48016;50.284;18.860;2022-07-09T03:03:56;6.63;;;5.00;;
62056;SDS011;48016;50.284;18.860;2022-07-09T03:06:23;11.78;;;5.58;;
62056;SDS011;48016;50.284;18.860;2022-07-09T03:08:51;7.05;;;4.85;;
62056;SDS011;48016;50.284;18.860;2022-07-09T03:11:18;9.55;;;4.73;;
62056;SDS011;48016;50.284;18.860;2022-07-09T03:13:45;8.65;;;4.30;;
62056;SDS011;48016;50.284;18.860;2022-07-09T03:16:12;7.68;;;4.30;;
62056;SDS011;48016;50.284;18.860;2022-07-09T03:18:39;9.33;;;4.60;;
62056;SDS011;48016;50.284;18.860;2022-07-09T03:21:06;12.35;;;4.98;;
62056;SDS011;48016;50.284;18.860;2022-07-09T03:23:35;8.93;;;4.93;;
62056;SDS011;48016;50.284;18.860;2022-07-09T03:26:03;8.45;;;4.85;;
62056;SDS011;48016;50.284;18.860;2022-07-09T03:28:31;9.43;;;4.45;;
62056;SDS011;48016;50.284;18.860;2022-07-09T03:30:58;7.53;;;4.90;;
62056;SDS011;48016;50.284;18.860;2022-07-09T03:38:22;8.43;;;4.65;;
62056;SDS011;48016;50.284;18.860;2022-07-09T03:40:50;8.13;;;4.35;;
62056;SDS011;48016;50.284;18.860;2022-07-09T03:43:19;8.38;;;4.40;;
62056;SDS011;48016;50.284;18.860;2022-07-09T03:45:46;7.40;;;4.40;;
62056;SDS011;48016;50.284;18.860;2022-07-09T03:48:13;8.20;;;4.53;;
62056;SDS011;48016;50.284;18.860;2022-07-09T03:50:40;9.35;;;4.58;;
62056;SDS011;48016;50.284;18.860;2022-07-09T03:53:08;7.77;;;4.20;;
62056;SDS011;48016;50.284;18.860;2022-07-09T03:55:35;6.43;;;4.40;;
62056;SDS011;48016;50.284;18.860;2022-07-09T03:58:02;6.20;;;4.30;;
62056;SDS011;48016;50.284;18.860;2022-07-09T04:00:29;12.70;;;4.58;;
62056;SDS011;48016;50.284;18.860;2022-07-09T04:02:56;7.33;;;4.50;;
62056;SDS011;48016;50.284;18.860;2022-07-09T04:07:50;8.50;;;4.65;;
62056;SDS011;48016;50.284;18.860;2022-07-09T04:12:45;8.18;;;4.18;;
62056;SDS011;48016;50.284;18.860;2022-07-09T04:15:12;7.98;;;4.40;;
62056;SDS011;48016;50.284;18.860;2022-07-09T04:17:39;13.13;;;4.63;;
62056;SDS011;48016;50.284;18.860;2022-07-09T04:20:06;7.20;;;4.13;;
62056;SDS011;48016;50.284;18.860;2022-07-09T04:22:33;10.28;;;4.43;;
62056;SDS011;48016;50.284;18.860;2022-07-09T04:25:00;8.23;;;4.18;;
62056;SDS011;48016;50.284;18.860;2022-07-09T04:27:28;5.65;;;3.65;;
62056;SDS011;48016;50.284;18.860;2022-07-09T04:29:55;7.00;;;4.00;;
62056;SDS011;48016;50.284;18.860;2022-07-09T04:32:22;8.30;;;4.10;;
62056;SDS011;48016;50.284;18.860;2022-07-09T04:34:49;7.93;;;5.00;;
62056;SDS011;48016;50.284;18.860;2022-07-09T04:37:16;8.00;;;5.18;;
62056;SDS011;48016;50.284;18.860;2022-07-09T04:39:43;9.60;;;5.70;;
62056;SDS011;48016;50.284;18.860;2022-07-09T04:42:10;9.83;;;6.13;;
62056;SDS011;48016;50.284;18.860;2022-07-09T04:44:39;11.63;;;7.98;;
62056;SDS011;48016;50.284;18.860;2022-07-09T04:47:09;10.23;;;7.88;;
62056;SDS011;48016;50.284;18.860;2022-07-09T04:49:36;12.40;;;9.00;;
62056;SDS011;48016;50.284;18.860;2022-07-09T04:54:31;14.95;;;9.68;;
62056;SDS011;48016;50.284;18.860;2022-07-09T04:56:59;14.73;;;11.30;;
62056;SDS011;48016;50.284;18.860;2022-07-09T04:59:26;16.67;;;11.43;;
62056;SDS011;48016;50.284;18.860;2022-07-09T05:01:53;14.00;;;11.75;;
62056;SDS011;48016;50.284;18.860;2022-07-09T05:04:21;14.45;;;11.23;;
62056;SDS011;48016;50.284;18.860;2022-07-09T05:06:48;14.98;;;11.10;;
62056;SDS011;48016;50.284;18.860;2022-07-09T05:09:15;15.10;;;11.40;;
62056;SDS011;48016;50.284;18.860;2022-07-09T05:11:42;14.55;;;10.75;;
62056;SDS011;48016;50.284;18.860;2022-07-09T05:14:09;14.08;;;11.28;;
62056;SDS011;48016;50.284;18.860;2022-07-09T05:16:36;14.23;;;10.78;;
62056;SDS011;48016;50.284;18.860;2022-07-09T05:19:03;11.50;;;9.58;;
62056;SDS011;48016;50.284;18.860;2022-07-09T05:21:30;13.70;;;9.70;;
62056;SDS011;48016;50.284;18.860;2022-07-09T05:23:57;11.20;;;8.05;;
62056;SDS011;48016;50.284;18.860;2022-07-09T05:26:26;13.40;;;8.05;;
62056;SDS011;48016;50.284;18.860;2022-07-09T05:28:56;9.63;;;7.60;;
62056;SDS011;48016;50.284;18.860;2022-07-09T05:31:23;10.63;;;8.00;;
62056;SDS011;48016;50.284;18.860;2022-07-09T05:36:18;11.30;;;7.10;;
62056;SDS011;48016;50.284;18.860;2022-07-09T05:38:45;14.70;;;7.50;;
62056;SDS011;48016;50.284;18.860;2022-07-09T05:41:13;9.50;;;7.55;;
62056;SDS011;48016;50.284;18.860;2022-07-09T05:43:44;10.10;;;7.18;;
62056;SDS011;48016;50.284;18.860;2022-07-09T05:46:11;12.58;;;7.48;;
62056;SDS011;48016;50.284;18.860;2022-07-09T05:48:38;11.83;;;7.20;;
62056;SDS011;48016;50.284;18.860;2022-07-09T05:53:33;9.70;;;7.15;;
62056;SDS011;48016;50.284;18.860;2022-07-09T05:56:00;11.08;;;7.95;;
62056;SDS011;48016;50.284;18.860;2022-07-09T05:58:27;11.50;;;7.33;;
62056;SDS011;48016;50.284;18.860;2022-07-09T06:00:54;10.55;;;7.48;;
62056;SDS011;48016;50.284;18.860;2022-07-09T06:03:21;11.70;;;6.73;;
62056;SDS011;48016;50.284;18.860;2022-07-09T06:05:48;9.10;;;7.43;;
62056;SDS011;48016;50.284;18.860;2022-07-09T06:08:15;11.53;;;7.35;;
62056;SDS011;48016;50.284;18.860;2022-07-09T06:15:36;25.28;;;12.63;;
62056;SDS011;48016;50.284;18.860;2022-07-09T06:18:03;10.90;;;8.13;;
62056;SDS011;48016;50.284;18.860;2022-07-09T06:20:31;11.48;;;7.93;;
62056;SDS011;48016;50.284;18.860;2022-07-09T06:25:25;13.55;;;7.23;;
62056;SDS011;48016;50.284;18.860;2022-07-09T06:32:46;10.00;;;6.50;;
62056;SDS011;48016;50.284;18.860;2022-07-09T06:35:14;9.03;;;5.75;;
62056;SDS011;48016;50.284;18.860;2022-07-09T06:37:41;10.43;;;6.50;;
62056;SDS011;48016;50.284;18.860;2022-07-09T06:42:35;7.95;;;5.50;;
62056;SDS011;48016;50.284;18.860;2022-07-09T06:47:29;8.83;;;5.35;;
62056;SDS011;48016;50.284;18.860;2022-07-09T06:49:56;7.95;;;5.63;;
62056;SDS011;48016;50.284;18.860;2022-07-09T06:52:24;8.05;;;5.48;;
62056;SDS011;48016;50.284;18.860;2022-07-09T06:54:51;8.03;;;5.90;;
62056;SDS011;48016;50.284;18.860;2022-07-09T06:59:45;6.75;;;5.10;;
62056;SDS011;48016;50.284;18.860;2022-07-09T07:02:13;8.05;;;5.13;;
62056;SDS011;48016;50.284;18.860;2022-07-09T07:04:42;8.28;;;5.10;;
62056;SDS011;48016;50.284;18.860;2022-07-09T07:09:36;8.33;;;6.35;;
62056;SDS011;48016;50.284;18.860;2022-07-09T07:14:30;11.93;;;6.97;;
62056;SDS011;48016;50.284;18.860;2022-07-09T07:19:24;12.70;;;7.28;;
62056;SDS011;48016;50.284;18.860;2022-07-09T07:21:51;9.15;;;7.00;;
62056;SDS011;48016;50.284;18.860;2022-07-09T07:26:46;15.40;;;7.20;;
62056;SDS011;48016;50.284;18.860;2022-07-09T07:31:40;14.73;;;8.27;;
62056;SDS011;48016;50.284;18.860;2022-07-09T07:34:07;10.93;;;8.35;;
62056;SDS011;48016;50.284;18.860;2022-07-09T07:36:34;11.68;;;8.85;;
62056;SDS011;48016;50.284;18.860;2022-07-09T07:39:01;11.83;;;9.33;;
62056;SDS011;48016;50.284;18.860;2022-07-09T07:41:29;11.83;;;9.30;;
62056;SDS011;48016;50.284;18.860;2022-07-09T07:43:56;11.38;;;7.90;;
62056;SDS011;48016;50.284;18.860;2022-07-09T07:53:44;10.00;;;6.88;;
62056;SDS011;48016;50.284;18.860;2022-07-09T08:01:05;9.10;;;5.27;;
62056;SDS011;48016;50.284;18.860;2022-07-09T08:05:59;8.58;;;5.98;;
62056;SDS011;48016;50.284;18.860;2022-07-09T08:08:26;7.93;;;6.38;;
62056;SDS011;48016;50.284;18.860;2022-07-09T08:10:54;11.13;;;6.90;;
62056;SDS011;48016;50.284;18.860;2022-07-09T08:13:21;9.40;;;6.48;;
62056;SDS011;48016;50.284;18.860;2022-07-09T08:15:48;7.40;;;6.48;;
62056;SDS011;48016;50.284;18.860;2022-07-09T08:18:15;7.78;;;5.73;;
62056;SDS011;48016;50.284;18.860;2022-07-09T08:23:09;8.27;;;5.83;;
62056;SDS011;48016;50.284;18.860;2022-07-09T08:25:37;9.13;;;5.85;;
62056;SDS011;48016;50.284;18.860;2022-07-09T08:28:04;9.50;;;6.63;;
62056;SDS011;48016;50.284;18.860;2022-07-09T08:30:31;9.23;;;6.00;;
62056;SDS011;48016;50.284;18.860;2022-07-09T08:32:59;8.60;;;5.88;;
62056;SDS011;48016;50.284;18.860;2022-07-09T08:35:26;8.35;;;5.45;;
62056;SDS011;48016;50.284;18.860;2022-07-09T08:37:53;10.87;;;5.67;;
62056;SDS011;48016;50.284;18.860;2022-07-09T08:40:21;6.73;;;4.95;;
62056;SDS011;48016;50.284;18.860;2022-07-09T08:42:49;8.48;;;5.60;;
62056;SDS011;48016;50.284;18.860;2022-07-09T08:45:16;8.73;;;4.80;;
62056;SDS011;48016;50.284;18.860;2022-07-09T08:47:45;7.08;;;5.15;;
62056;SDS011;48016;50.284;18.860;2022-07-09T08:50:13;7.03;;;4.43;;
62056;SDS011;48016;50.284;18.860;2022-07-09T08:52:41;6.95;;;3.95;;
62056;SDS011;48016;50.284;18.860;2022-07-09T08:55:09;5.48;;;3.83;;
62056;SDS011;48016;50.284;18.860;2022-07-09T08:57:37;7.68;;;3.95;;
62056;SDS011;48016;50.284;18.860;2022-07-09T09:00:05;13.23;;;5.80;;
62056;SDS011;48016;50.284;18.860;2022-07-09T09:02:33;8.00;;;3.57;;
62056;SDS011;48016;50.284;18.860;2022-07-09T09:05:06;8.43;;;4.05;;
62056;SDS011;48016;50.284;18.860;2022-07-09T09:07:34;7.73;;;3.20;;
62056;SDS011;48016;50.284;18.860;2022-07-09T09:10:01;7.95;;;3.95;;
62056;SDS011;48016;50.284;18.860;2022-07-09T09:12:29;6.83;;;3.70;;
62056;SDS011;48016;50.284;18.860;2022-07-09T09:14:56;4.10;;;3.18;;
62056;SDS011;48016;50.284;18.860;2022-07-09T09:17:23;4.97;;;2.90;;
62056;SDS011;48016;50.284;18.860;2022-07-09T09:19:50;8.03;;;3.90;;
62056;SDS011;48016;50.284;18.860;2022-07-09T09:22:18;5.18;;;2.70;;
62056;SDS011;48016;50.284;18.860;2022-07-09T09:24:48;5.45;;;2.93;;
62056;SDS011;48016;50.284;18.860;2022-07-09T09:27:17;4.13;;;2.48;;
62056;SDS011;48016;50.284;18.860;2022-07-09T09:29:50;3.98;;;2.55;;
62056;SDS011;48016;50.284;18.860;2022-07-09T09:32:21;4.70;;;2.65;;
62056;SDS011;48016;50.284;18.860;2022-07-09T09:34:48;6.48;;;2.75;;
62056;SDS011;48016;50.284;18.860;2022-07-09T09:37:27;4.70;;;3.40;;
62056;SDS011;48016;50.284;18.860;2022-07-09T09:39:57;4.28;;;2.80;;
62056;SDS011;48016;50.284;18.860;2022-07-09T09:44:54;4.38;;;2.90;;
62056;SDS011;48016;50.284;18.860;2022-07-09T09:47:26;5.90;;;3.10;;
62056;SDS011;48016;50.284;18.860;2022-07-09T09:49:54;4.95;;;2.50;;
62056;SDS011;48016;50.284;18.860;2022-07-09T09:52:26;4.45;;;2.73;;
62056;SDS011;48016;50.284;18.860;2022-07-09T09:54:53;3.20;;;2.28;;
62056;SDS011;48016;50.284;18.860;2022-07-09T09:57:21;5.20;;;2.53;;
62056;SDS011;48016;50.284;18.860;2022-07-09T09:59:54;4.03;;;2.33;;
62056;SDS011;48016;50.284;18.860;2022-07-09T10:02:22;3.90;;;2.00;;
62056;SDS011;48016;50.284;18.860;2022-07-09T10:04:52;2.58;;;1.63;;
62056;SDS011;48016;50.284;18.860;2022-07-09T10:07:19;1.93;;;1.40;;
62056;SDS011;48016;50.284;18.860;2022-07-09T10:09:56;3.40;;;2.10;;
62056;SDS011;48016;50.284;18.860;2022-07-09T10:12:32;4.10;;;2.13;;
62056;SDS011;48016;50.284;18.860;2022-07-09T10:15:01;4.20;;;1.97;;
62056;SDS011;48016;50.284;18.860;2022-07-09T10:17:49;3.93;;;2.10;;
62056;SDS011;48016;50.284;18.860;2022-07-09T10:20:16;2.65;;;1.95;;
62056;SDS011;48016;50.284;18.860;2022-07-09T10:22:44;3.13;;;2.20;;
62056;SDS011;48016;50.284;18.860;2022-07-09T10:25:21;5.75;;;2.23;;
62056;SDS011;48016;50.284;18.860;2022-07-09T10:27:53;3.90;;;2.30;;
62056;SDS011;48016;50.284;18.860;2022-07-09T10:33:11;3.47;;;1.90;;
62056;SDS011;48016;50.284;18.860;2022-07-09T10:35:41;4.75;;;1.90;;
62056;SDS011;48016;50.284;18.860;2022-07-09T10:38:12;3.33;;;1.90;;
62056;SDS011;48016;50.284;18.860;2022-07-09T10:40:44;2.65;;;1.88;;
62056;SDS011;48016;50.284;18.860;2022-07-09T10:43:12;3.50;;;2.05;;
62056;SDS011;48016;50.284;18.860;2022-07-09T10:45:41;4.25;;;2.00;;
62056;SDS011;48016;50.284;18.860;2022-07-09T10:48:09;4.07;;;2.10;;
62056;SDS011;48016;50.284;18.860;2022-07-09T10:50:39;2.15;;;1.50;;
62056;SDS011;48016;50.284;18.860;2022-07-09T10:53:08;3.98;;;1.88;;
62056;SDS011;48016;50.284;18.860;2022-07-09T10:55:36;3.38;;;1.80;;
62056;SDS011;48016;50.284;18.860;2022-07-09T10:58:03;2.95;;;1.30;;
62056;SDS011;48016;50.284;18.860;2022-07-09T11:00:34;2.68;;;1.50;;
62056;SDS011;48016;50.284;18.860;2022-07-09T11:03:02;7.55;;;6.70;;
62056;SDS011;48016;50.284;18.860;2022-07-09T11:05:33;3.10;;;1.60;;
62056;SDS011;48016;50.284;18.860;2022-07-09T11:08:05;2.20;;;1.53;;
62056;SDS011;48016;50.284;18.860;2022-07-09T11:10:37;3.05;;;1.83;;
62056;SDS011;48016;50.284;18.860;2022-07-09T11:13:06;4.38;;;1.70;;
62056;SDS011;48016;50.284;18.860;2022-07-09T11:15:36;2.78;;;1.70;;
62056;SDS011;48016;50.284;18.860;2022-07-09T11:20:40;3.48;;;2.23;;
62056;SDS011;48016;50.284;18.860;2022-07-09T11:23:15;3.50;;;2.10;;
62056;SDS011;48016;50.284;18.860;2022-07-09T11:25:43;3.80;;;1.70;;
62056;SDS011;48016;50.284;18.860;2022-07-09T11:28:20;1.90;;;1.33;;
62056;SDS011;48016;50.284;18.860;2022-07-09T11:31:00;2.48;;;1.70;;
62056;SDS011;48016;50.284;18.860;2022-07-09T11:33:29;3.78;;;1.63;;
62056;SDS011;48016;50.284;18.860;2022-07-09T11:36:17;4.00;;;2.03;;
62056;SDS011;48016;50.284;18.860;2022-07-09T11:38:54;3.30;;;2.30;;
62056;SDS011;48016;50.284;18.860;2022-07-09T11:41:21;3.60;;;2.40;;
62056;SDS011;48016;50.284;18.860;2022-07-09T11:43:49;5.07;;;2.47;;
62056;SDS011;48016;50.284;18.860;2022-07-09T11:46:18;3.60;;;2.50;;
62056;SDS011;48016;50.284;18.860;2022-07-09T11:48:49;3.30;;;2.08;;
62056;SDS011;48016;50.284;18.860;2022-07-09T11:53:54;2.93;;;2.10;;
62056;SDS011;48016;50.284;18.860;2022-07-09T11:56:21;4.53;;;2.17;;
62056;SDS011;48016;50.284;18.860;2022-07-09T11:58:49;2.98;;;2.28;;
62056;SDS011;48016;50.284;18.860;2022-07-09T12:01:17;4.73;;;2.23;;
62056;SDS011;48016;50.284;18.860;2022-07-09T12:03:49;4.35;;;2.10;;
62056;SDS011;48016;50.284;18.860;2022-07-09T12:06:17;3.50;;;2.20;;
62056;SDS011;48016;50.284;18.860;2022-07-09T12:08:44;3.13;;;1.88;;
62056;SDS011;48016;50.284;18.860;2022-07-09T12:11:11;5.63;;;2.25;;
62056;SDS011;48016;50.284;18.860;2022-07-09T12:13:38;3.20;;;2.18;;
62056;SDS011;48016;50.284;18.860;2022-07-09T12:16:05;2.48;;;2.15;;
62056;SDS011;48016;50.284;18.860;2022-07-09T12:18:33;5.70;;;2.25;;
62056;SDS011;48016;50.284;18.860;2022-07-09T12:21:00;4.75;;;2.60;;
62056;SDS011;48016;50.284;18.860;2022-07-09T12:23:27;5.53;;;2.30;;
62056;SDS011;48016;50.284;18.860;2022-07-09T12:25:54;4.65;;;2.40;;
62056;SDS011;48016;50.284;18.860;2022-07-09T12:28:21;4.05;;;2.30;;
62056;SDS011;48016;50.284;18.860;2022-07-09T12:33:16;5.03;;;2.50;;
62056;SDS011;48016;50.284;18.860;2022-07-09T12:35:43;4.53;;;2.30;;
62056;SDS011;48016;50.284;18.860;2022-07-09T12:38:10;2.67;;;2.20;;
62056;SDS011;48016;50.284;18.860;2022-07-09T12:40:37;3.85;;;2.40;;
62056;SDS011;48016;50.284;18.860;2022-07-09T12:45:31;4.05;;;2.60;;
62056;SDS011;48016;50.284;18.860;2022-07-09T12:50:25;5.58;;;2.93;;
62056;SDS011;48016;50.284;18.860;2022-07-09T12:55:19;3.23;;;2.25;;
62056;SDS011;48016;50.284;18.860;2022-07-09T12:57:46;4.40;;;2.35;;
62056;SDS011;48016;50.284;18.860;2022-07-09T13:00:14;3.95;;;2.40;;
62056;SDS011;48016;50.284;18.860;2022-07-09T13:02:41;4.33;;;2.08;;
62056;SDS011;48016;50.284;18.860;2022-07-09T13:05:08;3.28;;;2.30;;
62056;SDS011;48016;50.284;18.860;2022-07-09T13:07:35;3.23;;;2.28;;
62056;SDS011;48016;50.284;18.860;2022-07-09T13:10:03;2.83;;;2.38;;
62056;SDS011;48016;50.284;18.860;2022-07-09T13:12:30;2.63;;;1.95;;
62056;SDS011;48016;50.284;18.860;2022-07-09T13:15:00;2.75;;;2.33;;
62056;SDS011;48016;50.284;18.860;2022-07-09T13:17:27;2.80;;;2.23;;
62056;SDS011;48016;50.284;18.860;2022-07-09T13:19:54;3.57;;;2.07;;
62056;SDS011;48016;50.284;18.860;2022-07-09T13:22:21;3.45;;;2.23;;
62056;SDS011;48016;50.284;18.860;2022-07-09T13:27:15;2.90;;;2.10;;
62056;SDS011;48016;50.284;18.860;2022-07-09T13:29:45;2.93;;;1.90;;
62056;SDS011;48016;50.284;18.860;2022-07-09T13:32:12;5.55;;;2.08;;
62056;SDS011;48016;50.284;18.860;2022-07-09T13:34:39;2.67;;;2.20;;
62056;SDS011;48016;50.284;18.860;2022-07-09T13:39:33;4.03;;;1.85;;
62056;SDS011;48016;50.284;18.860;2022-07-09T13:44:27;3.25;;;2.35;;
62056;SDS011;48016;50.284;18.860;2022-07-09T13:49:21;2.08;;;1.88;;
62056;SDS011;48016;50.284;18.860;2022-07-09T13:54:16;4.78;;;2.33;;
62056;SDS011;48016;50.284;18.860;2022-07-09T13:56:43;3.45;;;2.20;;
62056;SDS011;48016;50.284;18.860;2022-07-09T13:59:10;4.35;;;2.60;;
62056;SDS011;48016;50.284;18.860;2022-07-09T14:04:04;2.65;;;2.00;;
62056;SDS011;48016;50.284;18.860;2022-07-09T14:06:31;3.03;;;2.30;;
62056;SDS011;48016;50.284;18.860;2022-07-09T14:08:59;2.55;;;2.30;;
62056;SDS011;48016;50.284;18.860;2022-07-09T14:11:26;2.45;;;2.05;;
62056;SDS011;48016;50.284;18.860;2022-07-09T14:13:53;3.13;;;2.20;;
62056;SDS011;48016;50.284;18.860;2022-07-09T14:16:21;2.23;;;1.90;;
62056;SDS011;48016;50.284;18.860;2022-07-09T14:18:49;3.13;;;2.10;;
62056;SDS011;48016;50.284;18.860;2022-07-09T14:21:16;3.10;;;1.80;;
62056;SDS011;48016;50.284;18.860;2022-07-09T14:26:17;2.65;;;2.00;;
62056;SDS011;48016;50.284;18.860;2022-07-09T14:28:44;4.33;;;1.93;;
62056;SDS011;48016;50.284;18.860;2022-07-09T14:31:11;3.78;;;1.93;;
62056;SDS011;48016;50.284;18.860;2022-07-09T14:33:38;2.43;;;1.70;;
62056;SDS011;48016;50.284;18.860;2022-07-09T14:36:06;2.20;;;1.68;;
62056;SDS011;48016;50.284;18.860;2022-07-09T14:38:33;3.53;;;1.75;;
62056;SDS011;48016;50.284;18.860;2022-07-09T14:41:00;4.40;;;2.18;;
62056;SDS011;48016;50.284;18.860;2022-07-09T14:45:54;4.18;;;2.18;;
62056;SDS011;48016;50.284;18.860;2022-07-09T14:48:21;2.83;;;1.80;;
62056;SDS011;48016;50.284;18.860;2022-07-09T14:53:15;3.28;;;1.68;;
62056;SDS011;48016;50.284;18.860;2022-07-09T14:55:43;3.48;;;1.75;;
62056;SDS011;48016;50.284;18.860;2022-07-09T14:58:11;2.73;;;2.03;;
62056;SDS011;48016;50.284;18.860;2022-07-09T15:03:05;4.45;;;1.90;;
62056;SDS011;48016;50.284;18.860;2022-07-09T15:07:59;3.85;;;1.70;;
62056;SDS011;48016;50.284;18.860;2022-07-09T15:12:53;3.80;;;1.90;;
62056;SDS011;48016;50.284;18.860;2022-07-09T15:17:47;2.50;;;1.93;;
62056;SDS011;48016;50.284;18.860;2022-07-09T15:20:15;3.58;;;2.10;;
62056;SDS011;48016;50.284;18.860;2022-07-09T15:22:42;2.28;;;1.95;;
62056;SDS011;48016;50.284;18.860;2022-07-09T15:25:09;2.78;;;1.90;;
62056;SDS011;48016;50.284;18.860;2022-07-09T15:27:37;2.53;;;1.90;;
62056;SDS011;48016;50.284;18.860;2022-07-09T15:30:04;2.98;;;2.00;;
62056;SDS011;48016;50.284;18.860;2022-07-09T15:32:32;2.73;;;2.30;;
62056;SDS011;48016;50.284;18.860;2022-07-09T15:34:59;3.35;;;1.90;;
62056;SDS011;48016;50.284;18.860;2022-07-09T15:37:26;2.83;;;2.18;;
62056;SDS011;48016;50.284;18.860;2022-07-09T15:42:21;3.03;;;1.80;;
62056;SDS011;48016;50.284;18.860;2022-07-09T15:44:48;2.70;;;2.17;;
62056;SDS011;48016;50.284;18.860;2022-07-09T15:47:15;3.33;;;2.10;;
62056;SDS011;48016;50.284;18.860;2022-07-09T15:49:43;5.38;;;2.38;;
62056;SDS011;48016;50.284;18.860;2022-07-09T15:54:37;4.65;;;2.58;;
62056;SDS011;48016;50.284;18.860;2022-07-09T15:59:31;3.58;;;2.10;;
62056;SDS011;48016;50.284;18.860;2022-07-09T16:04:25;2.78;;;2.10;;
62056;SDS011;48016;50.284;18.860;2022-07-09T16:11:46;2.93;;;1.93;;
62056;SDS011;48016;50.284;18.860;2022-07-09T16:14:32;3.45;;;2.30;;
62056;SDS011;48016;50.284;18.860;2022-07-09T16:19:26;3.50;;;2.10;;
62056;SDS011;48016;50.284;18.860;2022-07-09T16:24:20;4.08;;;2.20;;
62056;SDS011;48016;50.284;18.860;2022-07-09T16:31:41;3.05;;;2.08;;
62056;SDS011;48016;50.284;18.860;2022-07-09T16:36:36;3.38;;;1.83;;
62056;SDS011;48016;50.284;18.860;2022-07-09T16:41:30;4.05;;;1.83;;
62056;SDS011;48016;50.284;18.860;2022-07-09T16:46:24;3.98;;;1.70;;
62056;SDS011;48016;50.284;18.860;2022-07-09T16:53:45;3.90;;;2.13;;
62056;SDS011;48016;50.284;18.860;2022-07-09T16:56:14;4.10;;;2.20;;
62056;SDS011;48016;50.284;18.860;2022-07-09T16:58:41;5.73;;;2.48;;
62056;SDS011;48016;50.284;18.860;2022-07-09T17:01:08;4.38;;;2.30;;
62056;SDS011;48016;50.284;18.860;2022-07-09T17:03:36;4.13;;;2.63;;
62056;SDS011;48016;50.284;18.860;2022-07-09T17:06:03;4.30;;;2.38;;
62056;SDS011;48016;50.284;18.860;2022-07-09T17:08:31;6.33;;;2.48;;
62056;SDS011;48016;50.284;18.860;2022-07-09T17:10:58;3.65;;;2.10;;
62056;SDS011;48016;50.284;18.860;2022-07-09T17:13:25;5.53;;;2.50;;
62056;SDS011;48016;50.284;18.860;2022-07-09T17:15:53;3.93;;;2.38;;